createdAt,value
2018-01-10T00:01:23.022Z,99639.73
2018-01-10T00:03:52.203Z,99632.23
2018-01-10T00:06:21.454Z,99637.85
2018-01-10T00:08:50.750Z,99637.34
2018-01-10T00:11:19.966Z,99636.08
2018-01-10T00:13:49.246Z,99635.70
2018-01-10T00:16:18.582Z,99628.16
2018-01-10T00:18:47.809Z,99633.35
2018-01-10T00:21:17.012Z,99631.95
2018-01-10T00:23:46.206Z,99636.50
2018-01-10T00:26:15.419Z,99633.32
2018-01-10T00:28:44.711Z,99639.47
2018-01-10T00:31:13.938Z,99632.66
2018-01-10T00:33:43.957Z,99631.56
2018-01-10T00:36:14.036Z,99626.38
2018-01-10T00:38:43.261Z,99629.81
2018-01-10T00:41:12.419Z,99623.95
2018-01-10T00:43:41.627Z,99624.27
2018-01-10T00:46:10.905Z,99616.80
2018-01-10T00:48:40.862Z,99619.81
2018-01-10T00:51:10.063Z,99610.86
2018-01-10T00:53:39.448Z,99611.87
2018-01-10T00:56:08.719Z,99610.14
2018-01-10T00:58:37.926Z,99608.56
2018-01-10T01:01:07.175Z,99612.70
2018-01-10T01:03:37.155Z,99618.03
2018-01-10T01:06:06.355Z,99611.91
2018-01-10T01:08:35.601Z,99614.13
2018-01-10T01:11:05.594Z,99616.90
2018-01-10T01:13:35.576Z,99610.39
2018-01-10T01:16:04.776Z,99618.17
2018-01-10T01:18:34.006Z,99617.08
2018-01-10T01:21:03.194Z,99615.41
2018-01-10T01:23:32.483Z,99618.05
2018-01-10T01:26:01.678Z,99612.78
2018-01-10T01:28:30.862Z,99615.41
2018-01-10T01:31:00.179Z,99615.17
2018-01-10T01:33:29.439Z,99621.94
2018-01-10T01:35:58.676Z,99612.95
2018-01-10T01:38:27.863Z,99619.96
2018-01-10T01:40:57.091Z,99623.92
2018-01-10T01:43:26.263Z,99616.44
2018-01-10T01:45:56.279Z,99629.91
2018-01-10T01:48:25.487Z,99638.17
2018-01-10T01:50:54.709Z,99639.76
2018-01-10T01:53:24.780Z,99636.56
2018-01-10T01:55:54.011Z,99641.27
2018-01-10T01:58:24.013Z,99640.34
2018-01-10T02:00:53.204Z,99638.03
2018-01-10T02:03:22.442Z,99637.05
2018-01-10T02:05:51.634Z,99631.52
2018-01-10T02:08:21.600Z,99641.91
2018-01-10T02:10:50.789Z,99637.75
2018-01-10T02:13:20.046Z,99642.01
2018-01-10T02:15:49.189Z,99633.87
2018-01-10T02:18:18.568Z,99635.08
2018-01-10T02:20:47.835Z,99624.96
2018-01-10T02:23:17.140Z,99619.56
2018-01-10T02:25:47.155Z,99620.98
2018-01-10T02:28:17.119Z,99617.09
2018-01-10T02:30:46.337Z,99622.34
2018-01-10T02:33:15.538Z,99616.67
2018-01-10T02:35:44.755Z,99622.55
2018-01-10T02:38:13.958Z,99621.53
2018-01-10T02:40:44.060Z,99626.62
2018-01-10T02:43:13.239Z,99618.03
2018-01-10T02:45:42.458Z,99616.03
2018-01-10T02:48:11.639Z,99621.05
2018-01-10T02:50:40.831Z,99617.61
2018-01-10T02:53:10.128Z,99614.42
2018-01-10T02:55:39.339Z,99620.63
2018-01-10T02:58:08.522Z,99616.83
2018-01-10T03:00:37.737Z,99616.89
2018-01-10T03:03:06.971Z,99615.54
2018-01-10T03:05:36.146Z,99611.48
2018-01-10T03:08:06.126Z,99612.17
2018-01-10T03:10:35.333Z,99610.36
2018-01-10T03:13:04.546Z,99609.14
2018-01-10T03:15:33.736Z,99605.97
2018-01-10T03:18:03.018Z,99611.08
2018-01-10T03:20:32.223Z,99600.16
2018-01-10T03:23:01.503Z,99601.81
2018-01-10T03:25:30.677Z,99602.56
2018-01-10T03:27:59.886Z,99604.16
2018-01-10T03:30:29.072Z,99600.88
2018-01-10T03:32:58.295Z,99603.36
2018-01-10T03:35:27.502Z,99609.09
2018-01-10T03:37:56.815Z,99605.91
2018-01-10T03:40:26.027Z,99606.92
2018-01-10T03:42:55.266Z,99614.02
2018-01-10T03:45:24.469Z,99611.73
2018-01-10T03:47:53.666Z,99607.67
2018-01-10T03:50:22.899Z,99612.92
2018-01-10T03:52:52.098Z,99614.70
2018-01-10T03:55:21.350Z,99615.72
2018-01-10T03:57:50.557Z,99613.97
2018-01-10T04:00:19.792Z,99613.91
2018-01-10T04:02:48.981Z,99614.13
2018-01-10T04:05:18.194Z,99612.61
2018-01-10T04:07:47.509Z,99608.02
2018-01-10T04:10:16.731Z,99598.13
2018-01-10T04:12:45.953Z,99602.98
2018-01-10T04:15:15.260Z,99598.15
2018-01-10T04:17:44.479Z,99598.39
2018-01-10T04:20:13.732Z,99606.64
2018-01-10T04:22:42.925Z,99597.11
2018-01-10T04:25:12.136Z,99601.93
2018-01-10T04:27:41.338Z,99599.95
2018-01-10T04:30:10.549Z,99601.61
2018-01-10T04:32:39.750Z,99593.58
2018-01-10T04:35:08.983Z,99587.02
2018-01-10T04:37:39.075Z,99583.71
2018-01-10T04:40:08.345Z,99580.94
2018-01-10T04:42:37.533Z,99580.84
2018-01-10T04:45:06.719Z,99574.63
2018-01-10T04:47:35.920Z,99578.03
2018-01-10T04:50:05.113Z,99572.30
2018-01-10T04:52:34.335Z,99573.65
2018-01-10T04:55:03.590Z,99570.97
2018-01-10T04:57:33.537Z,99568.56
2018-01-10T05:00:02.756Z,99558.23
2018-01-10T05:02:31.972Z,99571.77
2018-01-10T05:05:01.187Z,99564.44
2018-01-10T05:07:30.635Z,99568.73
2018-01-10T05:09:59.839Z,99567.11
2018-01-10T05:12:29.068Z,99565.45
2018-01-10T05:14:58.282Z,99569.13
2018-01-10T05:17:27.493Z,99570.38
2018-01-10T05:19:56.716Z,99570.41
2018-01-10T05:22:25.906Z,99566.42
2018-01-10T05:24:55.165Z,99561.83
2018-01-10T05:27:24.351Z,99553.08
2018-01-10T05:29:53.572Z,99554.83
2018-01-10T05:32:23.587Z,99562.45
2018-01-10T05:34:53.563Z,99563.67
2018-01-10T05:37:22.742Z,99565.98
2018-01-10T05:39:51.953Z,99565.52
2018-01-10T05:42:21.173Z,99564.48
2018-01-10T05:44:50.529Z,99564.09
2018-01-10T05:47:19.774Z,99570.20
2018-01-10T05:49:49.079Z,99569.34
2018-01-10T05:52:18.247Z,99573.55
2018-01-10T05:54:47.515Z,99570.78
2018-01-10T05:57:16.710Z,99570.23
2018-01-10T05:59:45.914Z,99570.39
2018-01-10T06:02:15.959Z,99566.88
2018-01-10T06:04:45.936Z,99572.23
2018-01-10T06:07:15.134Z,99575.80
2018-01-10T06:09:44.391Z,99576.27
2018-01-10T06:12:13.586Z,99572.30
2018-01-10T06:14:42.787Z,99575.89
2018-01-10T06:17:15.299Z,99580.64
2018-01-10T06:19:45.276Z,99577.30
2018-01-10T06:22:14.483Z,99578.98
2018-01-10T06:24:43.671Z,99572.74
2018-01-10T06:27:12.951Z,99570.22
2018-01-10T06:29:42.134Z,99572.84
2018-01-10T06:32:11.355Z,99576.83
2018-01-10T06:34:40.674Z,99583.09
2018-01-10T06:37:09.870Z,99584.61
2018-01-10T06:39:39.051Z,99583.26
2018-01-10T06:42:08.281Z,99584.07
2018-01-10T06:44:37.495Z,99586.22
2018-01-10T06:47:06.710Z,99582.23
2018-01-10T06:49:35.921Z,99590.73
2018-01-10T06:52:05.108Z,99580.64
2018-01-10T06:54:34.322Z,99594.95
2018-01-10T06:57:03.540Z,99590.97
2018-01-10T06:59:32.696Z,99591.15
2018-01-10T07:02:01.887Z,99584.39
2018-01-10T07:04:31.127Z,99591.13
2018-01-10T07:07:00.315Z,99592.48
2018-01-10T07:09:29.508Z,99589.78
2018-01-10T07:11:58.678Z,99580.88
2018-01-10T07:14:27.869Z,99586.03
2018-01-10T07:16:57.110Z,99584.70
2018-01-10T07:19:27.823Z,99585.17
2018-01-10T07:21:57.018Z,99588.44
2018-01-10T07:24:26.264Z,99581.83
2018-01-10T07:26:55.608Z,99590.34
2018-01-10T07:29:24.807Z,99585.17
2018-01-10T07:31:54.026Z,99586.83
2018-01-10T07:34:23.332Z,99590.81
2018-01-10T07:36:52.530Z,99592.56
2018-01-10T07:39:21.740Z,99593.91
2018-01-10T07:41:52.466Z,99590.09
2018-01-10T07:44:21.664Z,99592.48
2018-01-10T07:46:50.899Z,99601.08
2018-01-10T07:49:20.088Z,99597.18
2018-01-10T07:51:50.067Z,99599.89
2018-01-10T07:54:19.261Z,99597.19
2018-01-10T07:56:48.461Z,99598.91
2018-01-10T07:59:17.658Z,99599.97
2018-01-10T08:01:46.848Z,99594.86
2018-01-10T08:04:16.025Z,99601.62
2018-01-10T08:06:45.254Z,99600.63
2018-01-10T08:09:14.442Z,99594.80
2018-01-10T08:11:43.671Z,99602.84
2018-01-10T08:14:13.691Z,99603.31
2018-01-10T08:16:43.657Z,99606.42
2018-01-10T08:19:12.935Z,99609.09
2018-01-10T08:21:42.153Z,99616.73
2018-01-10T08:24:11.478Z,99613.63
2018-01-10T08:26:40.712Z,99613.92
2018-01-10T08:29:10.667Z,99609.54
2018-01-10T08:31:39.856Z,99615.68
2018-01-10T08:34:10.006Z,99621.86
2018-01-10T08:36:39.962Z,99621.00
2018-01-10T08:39:09.186Z,99625.19
2018-01-10T08:41:38.391Z,99622.58
2018-01-10T08:44:07.598Z,99625.36
2018-01-10T08:46:36.807Z,99632.00
2018-01-10T08:49:06.019Z,99626.34
2018-01-10T08:51:35.209Z,99631.16
2018-01-10T08:54:04.403Z,99633.30
2018-01-10T08:56:34.443Z,99630.45
2018-01-10T08:59:03.619Z,99630.21
2018-01-10T09:01:32.794Z,99629.48
2018-01-10T09:04:01.979Z,99634.69
2018-01-10T09:06:31.299Z,99633.44
2018-01-10T09:09:00.467Z,99632.81
2018-01-10T09:11:29.718Z,99632.58
2018-01-10T09:13:58.906Z,99629.53
2018-01-10T09:16:28.109Z,99629.98
2018-01-10T09:18:57.312Z,99635.14
2018-01-10T09:21:26.512Z,99642.58
2018-01-10T09:23:55.737Z,99637.89
2018-01-10T09:26:25.711Z,99642.39
2018-01-10T09:28:54.896Z,99643.24
2018-01-10T09:31:24.158Z,99639.80
2018-01-10T09:33:53.355Z,99641.58
2018-01-10T09:36:22.554Z,99634.20
2018-01-10T09:38:51.742Z,99637.44
2018-01-10T09:41:20.946Z,99635.95
2018-01-10T09:43:50.167Z,99647.55
2018-01-10T09:46:19.360Z,99638.89
2018-01-10T09:48:48.578Z,99644.95
2018-01-10T09:51:17.762Z,99654.91
2018-01-10T09:53:47.138Z,99643.13
2018-01-10T09:56:16.337Z,99653.66
2018-01-10T09:58:46.392Z,99649.88
2018-01-10T10:01:15.586Z,99636.88
2018-01-10T10:03:44.793Z,99641.69
2018-01-10T10:06:15.606Z,99639.20
2018-01-10T10:08:44.802Z,99638.53
2018-01-10T10:11:13.994Z,99636.77
2018-01-10T10:13:43.287Z,99630.22
2018-01-10T10:16:12.498Z,99622.48
2018-01-10T10:18:41.689Z,99629.14
2018-01-10T10:21:11.027Z,99625.41
2018-01-10T10:23:40.252Z,99619.33
2018-01-10T10:26:09.430Z,99615.34
2018-01-10T10:28:41.059Z,99621.38
2018-01-10T10:31:10.250Z,99614.84
2018-01-10T10:33:39.486Z,99603.42
2018-01-10T10:36:09.453Z,99606.45
2018-01-10T10:38:38.660Z,99599.54
2018-01-10T10:41:07.842Z,99602.60
2018-01-10T10:43:37.571Z,99605.91
2018-01-10T10:46:06.737Z,99597.72
2018-01-10T10:48:35.968Z,99596.84
2018-01-10T10:51:05.427Z,99598.98
2018-01-10T10:53:34.677Z,99597.37
2018-01-10T10:56:03.897Z,99587.48
2018-01-10T10:58:33.863Z,99593.10
2018-01-10T11:01:03.081Z,99589.91
2018-01-10T11:03:32.282Z,99582.18
2018-01-10T11:06:01.581Z,99581.62
2018-01-10T11:08:30.758Z,99578.36
2018-01-10T11:11:00.034Z,99578.20
2018-01-10T11:13:29.239Z,99573.25
2018-01-10T11:15:58.455Z,99572.34
2018-01-10T11:18:27.834Z,99567.59
2018-01-10T11:20:57.024Z,99565.65
2018-01-10T11:23:26.228Z,99561.13
2018-01-10T11:25:55.532Z,99566.17
2018-01-10T11:28:27.513Z,99563.29
2018-01-10T11:30:56.718Z,99562.67
2018-01-10T11:33:25.921Z,99554.62
2018-01-10T11:35:55.346Z,99558.13
2018-01-10T11:38:25.492Z,99560.45
2018-01-10T11:40:54.710Z,99560.67
2018-01-10T11:43:23.962Z,99554.22
2018-01-10T11:45:53.987Z,99554.17
2018-01-10T11:48:24.045Z,99548.78
2018-01-10T11:50:53.251Z,99542.73
2018-01-10T11:53:22.464Z,99549.88
2018-01-10T11:55:51.681Z,99543.92
2018-01-10T11:58:21.644Z,99542.11
2018-01-10T12:00:50.862Z,99537.59
2018-01-10T12:03:20.056Z,99542.33
2018-01-10T12:05:49.289Z,99540.97
2018-01-10T12:08:19.279Z,99538.77
2018-01-10T12:10:48.506Z,99538.20
2018-01-10T12:13:18.474Z,99538.03
2018-01-10T12:15:47.663Z,99537.07
2018-01-10T12:18:17.167Z,99531.34
2018-01-10T12:20:46.378Z,99532.08
2018-01-10T12:23:15.649Z,99528.80
2018-01-10T12:25:44.823Z,99533.61
2018-01-10T12:28:14.906Z,99525.59
2018-01-10T12:30:44.099Z,99524.09
2018-01-10T12:33:13.320Z,99526.25
2018-01-10T12:35:42.527Z,99526.99
2018-01-10T12:38:12.506Z,99518.84
2018-01-10T12:40:41.708Z,99524.74
2018-01-10T12:43:11.542Z,99525.36
2018-01-10T12:45:41.530Z,99519.23
2018-01-10T12:48:10.759Z,99522.08
2018-01-10T12:50:39.981Z,99520.75
2018-01-10T12:53:09.954Z,99520.04
2018-01-10T12:55:39.354Z,99517.72
2018-01-10T12:58:08.544Z,99515.84
2018-01-10T13:00:37.747Z,99513.95
2018-01-10T13:03:06.948Z,99512.16
2018-01-10T13:05:36.168Z,99511.31
2018-01-10T13:08:05.399Z,99509.48
2018-01-10T13:10:34.622Z,99506.50
2018-01-10T13:13:03.828Z,99512.66
2018-01-10T13:15:33.018Z,99505.83
2018-01-10T13:18:02.240Z,99513.89
2018-01-10T13:20:31.461Z,99515.50
2018-01-10T13:23:00.700Z,99512.79
2018-01-10T13:25:29.890Z,99513.58
2018-01-10T13:27:59.106Z,99514.98
2018-01-10T13:30:28.312Z,99517.57
2018-01-10T13:32:57.542Z,99523.08
2018-01-10T13:35:27.065Z,99526.12
2018-01-10T13:37:56.315Z,99522.05
2018-01-10T13:40:25.528Z,99525.91
2018-01-10T13:42:54.751Z,99524.14
2018-01-10T13:45:24.711Z,99525.33
2018-01-10T13:47:53.926Z,99520.41
2018-01-10T13:50:23.411Z,99523.95
2018-01-10T13:52:52.893Z,99522.94
2018-01-10T13:55:22.089Z,99518.52
2018-01-10T13:57:51.396Z,99523.92
2018-01-10T14:00:20.644Z,99515.59
2018-01-10T14:02:49.855Z,99523.08
2018-01-10T14:05:19.288Z,99520.75
2018-01-10T14:07:48.530Z,99526.46
2018-01-10T14:10:17.722Z,99528.73
2018-01-10T14:12:46.929Z,99526.08
2018-01-10T14:15:16.174Z,99530.10
2018-01-10T14:17:45.412Z,99531.50
2018-01-10T14:20:14.691Z,99539.30
2018-01-10T14:22:45.488Z,99532.80
2018-01-10T14:25:15.586Z,99530.09
2018-01-10T14:27:45.654Z,99536.19
2018-01-10T14:30:14.919Z,99534.56
2018-01-10T14:32:44.884Z,99534.91
2018-01-10T14:35:14.119Z,99543.27
2018-01-10T14:37:44.102Z,99542.47
2018-01-10T14:40:13.312Z,99541.06
2018-01-10T14:42:42.502Z,99539.14
2018-01-10T14:45:12.621Z,99541.38
2018-01-10T14:47:41.814Z,99547.48
2018-01-10T14:50:11.042Z,99543.53
2018-01-10T14:52:40.243Z,99541.77
2018-01-10T14:55:10.297Z,99544.14
2018-01-10T14:57:39.505Z,99542.16
2018-01-10T15:00:08.756Z,99548.38
2018-01-10T15:02:38.738Z,99551.42
2018-01-10T15:05:07.940Z,99550.89
2018-01-10T15:07:37.214Z,99555.84
2018-01-10T15:10:06.404Z,99554.60
2018-01-10T15:12:35.643Z,99546.30
2018-01-10T15:15:05.319Z,99554.61
2018-01-10T15:17:34.532Z,99557.16
2018-01-10T15:20:03.731Z,99564.06
2018-01-10T15:22:32.920Z,99561.01
2018-01-10T15:25:02.155Z,99562.70
2018-01-10T15:27:31.347Z,99565.08
2018-01-10T15:30:00.565Z,99560.78
2018-01-10T15:32:30.528Z,99567.97
2018-01-10T15:35:00.658Z,99569.05
2018-01-10T15:37:29.891Z,99571.75
2018-01-10T15:39:59.884Z,99573.84
2018-01-10T15:42:29.168Z,99573.77
2018-01-10T15:44:58.605Z,99579.30
2018-01-10T15:47:27.794Z,99583.69
2018-01-10T15:49:57.022Z,99592.09
2018-01-10T15:52:26.248Z,99594.23
2018-01-10T15:54:55.579Z,99585.58
2018-01-10T15:57:24.775Z,99589.42
2018-01-10T15:59:53.962Z,99594.06
2018-01-10T16:02:24.176Z,99591.73
2018-01-10T16:04:53.354Z,99590.61
2018-01-10T16:07:22.580Z,99589.48
2018-01-10T16:09:51.759Z,99596.32
2018-01-10T16:12:20.993Z,99600.78
2018-01-10T16:14:50.214Z,99594.91
2018-01-10T16:17:20.316Z,99591.94
2018-01-10T16:19:49.487Z,99592.95
2018-01-10T16:22:18.727Z,99594.93
2018-01-10T16:24:48.714Z,99597.02
2018-01-10T16:27:18.034Z,99595.69
2018-01-10T16:29:48.024Z,99599.70
2018-01-10T16:32:17.226Z,99584.34
2018-01-10T16:34:46.507Z,99594.38
2018-01-10T16:37:15.887Z,99597.00
2018-01-10T16:39:45.109Z,99594.52
2018-01-10T16:42:14.317Z,99599.26
2018-01-10T16:44:43.606Z,99597.80
2018-01-10T16:47:12.848Z,99594.40
2018-01-10T16:49:42.828Z,99599.67
2018-01-10T16:52:12.237Z,99604.42
2018-01-10T16:54:41.464Z,99603.40
2018-01-10T16:57:10.635Z,99602.55
2018-01-10T16:59:40.007Z,99596.78
2018-01-10T17:02:09.225Z,99605.71
2018-01-10T17:04:38.524Z,99600.69
2018-01-10T17:07:07.735Z,99603.20
2018-01-10T17:09:39.407Z,99603.77
2018-01-10T17:12:08.603Z,99601.74
2018-01-10T17:14:38.558Z,99607.68
2018-01-10T17:17:07.781Z,99611.00
2018-01-10T17:19:37.025Z,99613.39
2018-01-10T17:22:06.373Z,99618.69
2018-01-10T17:24:35.613Z,99612.98
2018-01-10T17:27:05.670Z,99616.83
2018-01-10T17:29:34.855Z,99616.31
2018-01-10T17:32:04.878Z,99626.99
2018-01-10T17:34:34.094Z,99625.97
2018-01-10T17:37:03.375Z,99629.67
2018-01-10T17:39:32.599Z,99628.79
2018-01-10T17:42:01.831Z,99626.17
2018-01-10T17:44:31.808Z,99625.28
2018-01-10T17:47:01.015Z,99633.02
2018-01-10T17:49:30.320Z,99627.07
2018-01-10T17:51:59.636Z,99625.26
2018-01-10T17:54:28.840Z,99628.69
2018-01-10T17:56:58.018Z,99635.06
2018-01-10T17:59:28.054Z,99640.64
2018-01-10T18:01:58.090Z,99638.59
2018-01-10T18:04:27.311Z,99641.38
2018-01-10T18:06:56.653Z,99638.30
2018-01-10T18:09:27.538Z,99641.73
2018-01-10T18:11:56.744Z,99640.53
2018-01-10T18:14:25.944Z,99651.03
2018-01-10T18:16:55.201Z,99648.26
2018-01-10T18:19:25.265Z,99644.28
2018-01-10T18:21:54.448Z,99652.01
2018-01-10T18:24:23.664Z,99645.40
2018-01-10T18:26:52.898Z,99644.14
2018-01-10T18:29:22.887Z,99648.76
2018-01-10T18:31:52.116Z,99653.23
2018-01-10T18:34:22.072Z,99654.02
2018-01-10T18:36:51.342Z,99653.23
2018-01-10T18:39:20.565Z,99648.53
2018-01-10T18:41:49.985Z,99648.80
2018-01-10T18:44:19.168Z,99648.89
2018-01-10T18:46:48.367Z,99648.80
2018-01-10T18:49:18.465Z,99646.50
2018-01-10T18:51:47.698Z,99647.45
2018-01-10T18:54:16.917Z,99642.61
2018-01-10T18:56:46.161Z,99647.38
2018-01-10T18:59:16.136Z,99641.88
2018-01-10T19:01:45.354Z,99645.31
2018-01-10T19:04:15.402Z,99644.97
2018-01-10T19:06:44.639Z,99652.52
2018-01-10T19:09:14.011Z,99662.33
2018-01-10T19:11:43.368Z,99656.73
2018-01-10T19:14:13.400Z,99660.25
2018-01-10T19:16:43.452Z,99660.00
2018-01-10T19:19:12.742Z,99661.75
2018-01-10T19:21:42.031Z,99661.83
2018-01-10T19:24:12.146Z,99659.59
2018-01-10T19:26:41.353Z,99663.33
2018-01-10T19:29:10.579Z,99666.61
2018-01-10T19:31:39.827Z,99668.66
2018-01-10T19:34:09.796Z,99660.47
2018-01-10T19:36:38.997Z,99664.07
2018-01-10T19:39:08.206Z,99661.75
2018-01-10T19:41:37.411Z,99662.94
2018-01-10T19:44:06.629Z,99658.02
2018-01-10T19:46:35.967Z,99663.98
2018-01-10T19:49:05.203Z,99659.05
2018-01-10T19:51:36.022Z,99663.88
2018-01-10T19:54:05.215Z,99659.66
2018-01-10T19:56:34.426Z,99660.38
2018-01-10T19:59:03.632Z,99664.33
2018-01-10T20:01:33.579Z,99668.55
2018-01-10T20:04:02.786Z,99674.83
2018-01-10T20:06:32.022Z,99673.01
2018-01-10T20:09:01.380Z,99674.36
2018-01-10T20:11:31.419Z,99672.59
2018-01-10T20:14:00.707Z,99673.94
2018-01-10T20:16:29.959Z,99673.86
2018-01-10T20:19:00.008Z,99675.84
2018-01-10T20:21:29.226Z,99675.92
2018-01-10T20:23:58.438Z,99672.84
2018-01-10T20:26:27.634Z,99678.33
2018-01-10T20:28:56.876Z,99676.02
2018-01-10T20:31:26.866Z,99682.06
2018-01-10T20:33:56.226Z,99681.67
2018-01-10T20:36:25.442Z,99682.97
2018-01-10T20:38:54.796Z,99682.48
2018-01-10T20:41:24.937Z,99682.73
2018-01-10T20:43:54.227Z,99691.70
2018-01-10T20:46:23.587Z,99684.61
2018-01-10T20:48:52.834Z,99690.84
2018-01-10T20:51:22.109Z,99693.05
2018-01-10T20:53:52.103Z,99687.52
2018-01-10T20:56:21.339Z,99685.52
2018-01-10T20:58:50.560Z,99692.84
2018-01-10T21:01:19.756Z,99689.89
2018-01-10T21:03:49.192Z,99685.78
2018-01-10T21:06:18.427Z,99692.63
2018-01-10T21:08:48.424Z,99695.33
2018-01-10T21:11:17.605Z,99694.30
2018-01-10T21:13:46.852Z,99695.66
2018-01-10T21:16:16.076Z,99703.37
2018-01-10T21:18:45.279Z,99701.96
2018-01-10T21:21:14.467Z,99700.77
2018-01-10T21:23:43.713Z,99701.86
2018-01-10T21:26:13.039Z,99706.42
2018-01-10T21:28:42.269Z,99707.69
2018-01-10T21:31:11.517Z,99703.46
2018-01-10T21:33:42.396Z,99702.04
2018-01-10T21:36:12.553Z,99703.39
2018-01-10T21:38:41.783Z,99706.02
2018-01-10T21:41:10.995Z,99706.81
2018-01-10T21:43:40.238Z,99703.94
2018-01-10T21:46:09.455Z,99710.41
2018-01-10T21:48:39.447Z,99704.91
2018-01-10T21:51:08.786Z,99696.70
2018-01-10T21:53:38.827Z,99698.72
2018-01-10T21:56:08.085Z,99705.98
2018-01-10T21:58:37.337Z,99708.80
2018-01-10T22:01:06.654Z,99707.61
2018-01-10T22:03:35.859Z,99709.99
2018-01-10T22:06:05.080Z,99710.50
2018-01-10T22:08:34.319Z,99709.14
2018-01-10T22:11:03.535Z,99711.23
2018-01-10T22:13:32.752Z,99717.77
2018-01-10T22:16:01.965Z,99714.28
2018-01-10T22:18:32.699Z,99713.20
2018-01-10T22:21:01.969Z,99715.12
2018-01-10T22:23:31.200Z,99716.25
2018-01-10T22:26:00.379Z,99719.42
2018-01-10T22:28:29.620Z,99719.84
2018-01-10T22:30:58.861Z,99719.23
2018-01-10T22:33:28.058Z,99722.18
2018-01-10T22:35:57.250Z,99720.98
2018-01-10T22:38:26.471Z,99719.86
2018-01-10T22:40:55.723Z,99723.21
2018-01-10T22:43:24.931Z,99721.06
2018-01-10T22:45:54.132Z,99718.09
2018-01-10T22:48:23.312Z,99725.33
2018-01-10T22:50:52.513Z,99724.29
2018-01-10T22:53:21.695Z,99721.67
2018-01-10T22:55:51.662Z,99726.92
2018-01-10T22:58:20.895Z,99724.00
2018-01-10T23:00:50.858Z,99725.52
2018-01-10T23:03:20.063Z,99725.17
2018-01-10T23:05:49.260Z,99730.11
2018-01-10T23:08:18.522Z,99729.23
2018-01-10T23:10:47.718Z,99724.30
2018-01-10T23:13:17.031Z,99722.67
2018-01-10T23:15:46.244Z,99726.44
2018-01-10T23:18:15.426Z,99732.80
2018-01-10T23:20:44.786Z,99727.28
2018-01-10T23:23:14.757Z,99731.92
2018-01-10T23:25:43.974Z,99741.47
2018-01-10T23:28:13.172Z,99736.22
2018-01-10T23:30:42.484Z,99737.75
2018-01-10T23:33:11.699Z,99740.20
2018-01-10T23:35:41.683Z,99749.45
2018-01-10T23:38:10.967Z,99759.63
2018-01-10T23:40:40.311Z,99752.64
2018-01-10T23:43:09.496Z,99760.66
2018-01-10T23:45:40.188Z,99757.58
2018-01-10T23:48:09.414Z,99756.59
2018-01-10T23:50:38.592Z,99755.52
2018-01-10T23:53:07.811Z,99753.87
2018-01-10T23:55:38.544Z,99758.98
2018-01-10T23:58:08.505Z,99756.97
